Time;durP1;ratioP1;P1;durP2;ratioP2;P2;SDS_P1;SDS_P2;PMS_P1;PMS_P2;Temp;Humidity;BMP_temperature;BMP_pressure;BME280_temperature;BME280_humidity;BME280_pressure;Samples;Min_cycle;Max_cycle;Signal;HPM_P1;HPM_P2
2022/10/18 00:01:08;;;;;;;2.70;2.20;;;17.30;99.90;;;;;;5027340;28;20831;-71
2022/10/18 00:03:37;;;;;;;2.63;2.17;;;17.30;99.90;;;;;;4998180;28;20950;-71
2022/10/18 00:06:08;;;;;;;2.37;2.00;;;17.30;99.90;;;;;;5020373;28;20515;-71
2022/10/18 00:08:35;;;;;;;3.60;2.40;;;17.30;99.90;;;;;;5026462;28;20435;-71
2022/10/18 00:11:01;;;;;;;3.70;1.87;;;17.30;99.90;;;;;;5018786;28;20416;-71
2022/10/18 00:13:30;;;;;;;5.10;2.50;;;17.30;99.90;;;;;;5018083;28;20457;-71
2022/10/18 00:16:01;;;;;;;3.47;2.00;;;17.30;99.90;;;;;;5035438;28;20439;-71
2022/10/18 00:18:30;;;;;;;3.93;2.10;;;17.30;99.90;;;;;;5055236;28;21026;-71
2022/10/18 00:21:11;;;;;;;2.10;1.90;;;17.30;99.90;;;;;;5018268;28;20440;-71
2022/10/18 00:23:42;;;;;;;2.10;1.90;;;17.30;99.90;;;;;;5035067;28;20913;-71
2022/10/18 00:26:19;;;;;;;2.33;2.00;;;17.30;99.90;;;;;;5054044;28;20779;-71
2022/10/18 00:29:00;;;;;;;3.27;2.00;;;17.30;99.90;;;;;;5035942;28;20429;-71
2022/10/18 00:31:35;;;;;;;3.70;2.40;;;17.30;99.90;;;;;;5017567;28;20839;-71
2022/10/18 00:34:06;;;;;;;2.30;2.10;;;17.30;99.90;;;;;;5018303;28;20831;-71
2022/10/18 00:36:40;;;;;;;2.27;2.07;;;17.30;99.90;;;;;;5017122;28;20432;-71
2022/10/18 00:39:15;;;;;;;2.33;2.00;;;17.30;99.90;;;;;;5004916;28;20979;-71
2022/10/18 00:41:48;;;;;;;4.23;2.30;;;17.30;99.90;;;;;;5055043;28;20411;-71
2022/10/18 00:44:14;;;;;;;2.30;2.10;;;17.30;99.90;;;;;;5048561;28;20526;-71
2022/10/18 00:46:48;;;;;;;3.23;2.50;;;17.20;99.90;;;;;;5016956;28;20489;-71
2022/10/18 00:49:32;;;;;;;2.87;2.03;;;17.20;99.90;;;;;;5006004;28;20425;-71
2022/10/18 00:52:04;;;;;;;2.90;2.27;;;17.30;99.90;;;;;;5037014;28;20408;-71
2022/10/18 00:54:36;;;;;;;2.10;1.80;;;17.20;99.90;;;;;;5052894;28;20435;-71
2022/10/18 00:57:19;;;;;;;3.17;2.20;;;17.20;99.90;;;;;;5012147;28;20494;-71
2022/10/18 00:59:48;;;;;;;3.83;2.40;;;17.20;99.90;;;;;;5034453;28;20774;-71
2022/10/18 01:02:17;;;;;;;2.20;1.73;;;17.20;99.90;;;;;;5054667;28;20427;-71
2022/10/18 01:04:50;;;;;;;5.70;2.10;;;17.20;99.90;;;;;;5026843;28;20430;-71
2022/10/18 01:07:46;;;;;;;4.13;2.20;;;17.20;99.90;;;;;;5034497;28;20432;-71
2022/10/18 01:10:15;;;;;;;3.90;2.47;;;17.20;99.90;;;;;;5047080;28;20528;-71
2022/10/18 01:13:00;;;;;;;2.27;2.07;;;17.20;99.90;;;;;;5053798;28;20420;-71
2022/10/18 01:15:42;;;;;;;6.60;1.90;;;17.20;99.90;;;;;;5020551;28;20415;-71
2022/10/18 01:18:22;;;;;;;2.40;1.97;;;17.20;99.90;;;;;;5052149;28;20446;-71
2022/10/18 01:21:09;;;;;;;5.03;2.50;;;17.20;99.90;;;;;;5036368;28;20453;-71
2022/10/18 01:23:53;;;;;;;2.17;1.97;;;17.20;99.90;;;;;;5027740;28;20539;-71
2022/10/18 01:26:51;;;;;;;2.77;2.00;;;17.20;99.90;;;;;;5034288;28;20433;-71
2022/10/18 01:30:04;;;;;;;4.10;2.10;;;17.20;99.90;;;;;;5019596;28;20448;-71
2022/10/18 01:32:38;;;;;;;2.80;2.00;;;17.20;99.90;;;;;;4997045;28;20426;-71
2022/10/18 01:35:10;;;;;;;2.70;2.30;;;17.20;99.90;;;;;;5022101;28;20991;-71
2022/10/18 01:37:39;;;;;;;4.90;2.27;;;17.20;99.90;;;;;;5016211;28;20487;-71
2022/10/18 01:40:11;;;;;;;3.70;2.83;;;17.20;99.90;;;;;;5033985;28;20455;-71
2022/10/18 01:42:37;;;;;;;6.70;2.30;;;17.20;99.90;;;;;;5033759;28;20444;-71
2022/10/18 01:45:06;;;;;;;2.67;2.47;;;17.20;99.90;;;;;;5036073;28;20409;-70
2022/10/18 01:47:37;;;;;;;2.77;2.27;;;17.20;99.90;;;;;;5052216;28;20790;-71
2022/10/18 01:50:31;;;;;;;3.80;2.50;;;17.20;99.90;;;;;;5026567;28;20422;-71
2022/10/18 01:52:57;;;;;;;5.00;2.27;;;17.20;99.90;;;;;;5052178;28;20921;-71
2022/10/18 01:55:37;;;;;;;4.40;2.50;;;17.20;99.90;;;;;;5000763;28;20448;-71
2022/10/18 01:58:25;;;;;;;2.70;2.33;;;17.20;99.90;;;;;;5016046;28;20478;-71
2022/10/18 02:01:04;;;;;;;2.83;1.83;;;17.20;99.90;;;;;;5033654;28;20420;-71
2022/10/18 02:03:36;;;;;;;4.13;2.13;;;17.20;99.90;;;;;;5041404;28;20451;-71
2022/10/18 02:06:16;;;;;;;3.60;2.57;;;17.20;99.90;;;;;;5046924;28;20466;-71
2022/10/18 02:09:05;;;;;;;2.30;2.10;;;17.20;99.90;;;;;;5015609;28;20421;-71
2022/10/18 02:11:35;;;;;;;3.20;2.07;;;17.20;99.90;;;;;;5025056;28;20461;-71
2022/10/18 02:14:07;;;;;;;2.50;1.83;;;17.20;99.90;;;;;;5044602;28;20467;-71
2022/10/18 02:16:53;;;;;;;2.57;2.20;;;17.20;99.90;;;;;;5035505;28;20410;-71
2022/10/18 02:19:29;;;;;;;3.50;2.20;;;17.10;99.90;;;;;;5013090;28;20944;-71
2022/10/18 02:21:57;;;;;;;2.10;1.90;;;17.10;99.90;;;;;;5033267;28;20421;-71
2022/10/18 02:24:30;;;;;;;3.30;2.30;;;17.10;99.90;;;;;;5029548;28;20955;-71
2022/10/18 02:26:56;;;;;;;2.50;1.97;;;17.10;99.90;;;;;;5012208;28;20491;-71
2022/10/18 02:29:23;;;;;;;2.77;2.17;;;17.10;99.90;;;;;;5039789;28;20439;-71
2022/10/18 02:31:59;;;;;;;3.87;2.60;;;17.10;99.90;;;;;;5015995;28;20435;-71
2022/10/18 02:34:37;;;;;;;3.00;2.50;;;17.10;99.90;;;;;;5030306;28;20467;-71
2022/10/18 02:37:07;;;;;;;3.97;2.27;;;17.10;99.90;;;;;;5034965;28;20887;-71
2022/10/18 02:39:47;;;;;;;2.40;2.20;;;17.10;99.90;;;;;;5050869;28;20435;-70
2022/10/18 02:42:17;;;;;;;3.73;2.93;;;17.10;99.90;;;;;;5052802;28;20489;-71
2022/10/18 02:44:44;;;;;;;2.50;2.30;;;17.10;99.90;;;;;;5035769;28;20446;-71
2022/10/18 02:47:13;;;;;;;3.40;2.40;;;17.10;99.90;;;;;;4998850;28;21019;-71
2022/10/18 02:49:41;;;;;;;5.07;2.47;;;17.10;99.90;;;;;;4999722;28;20434;-71
2022/10/18 02:52:30;;;;;;;2.77;2.37;;;17.10;99.90;;;;;;5024084;28;20927;-71
2022/10/18 02:55:00;;;;;;;3.00;2.30;;;17.10;99.90;;;;;;4999722;28;20910;-71
2022/10/18 02:57:29;;;;;;;6.20;3.00;;;17.10;99.90;;;;;;5021635;28;20480;-71
2022/10/18 03:00:02;;;;;;;3.30;2.20;;;17.10;99.90;;;;;;5033581;28;20952;-71
2022/10/18 03:02:30;;;;;;;2.60;2.40;;;17.10;99.90;;;;;;5043813;28;20424;-71
2022/10/18 03:04:58;;;;;;;2.70;2.00;;;17.10;99.90;;;;;;5033148;28;20911;-71
2022/10/18 03:07:29;;;;;;;3.27;2.60;;;17.10;99.90;;;;;;5045163;28;20452;-71
2022/10/18 03:10:00;;;;;;;5.20;2.27;;;17.10;99.90;;;;;;4999412;28;20439;-71
2022/10/18 03:12:28;;;;;;;2.73;1.97;;;17.10;99.90;;;;;;5032480;28;20397;-71
2022/10/18 03:14:56;;;;;;;2.73;2.37;;;17.10;99.90;;;;;;5104820;22;20889;-70
2022/10/18 03:17:25;;;;;;;3.50;2.23;;;17.10;99.90;;;;;;5053422;28;20424;-70
2022/10/18 03:19:51;;;;;;;3.27;2.70;;;17.10;99.90;;;;;;5019389;28;20634;-70
2022/10/18 03:22:17;;;;;;;3.37;2.70;;;17.10;99.90;;;;;;5035527;28;20390;-70
2022/10/18 03:24:44;;;;;;;3.10;2.27;;;17.10;99.90;;;;;;5019382;28;20431;-70
2022/10/18 03:27:12;;;;;;;3.10;2.27;;;17.10;99.90;;;;;;5035519;28;21054;-70
2022/10/18 03:29:39;;;;;;;2.67;2.20;;;17.10;99.90;;;;;;5019220;28;20503;-70
2022/10/18 03:32:05;;;;;;;5.80;2.73;;;17.10;99.90;;;;;;5035599;28;20985;-70
2022/10/18 03:34:36;;;;;;;3.83;2.20;;;17.10;99.90;;;;;;5035524;28;20426;-70
2022/10/18 03:37:03;;;;;;;2.10;1.63;;;17.10;99.90;;;;;;5052986;28;20457;-70
2022/10/18 03:39:28;;;;;;;2.40;1.90;;;17.10;99.90;;;;;;5016528;28;20431;-71
2022/10/18 03:41:57;;;;;;;2.83;2.33;;;17.10;99.90;;;;;;5030683;28;20520;-71
2022/10/18 03:44:23;;;;;;;3.03;2.20;;;17.10;99.90;;;;;;5026484;28;20513;-71
2022/10/18 03:46:51;;;;;;;1.70;1.60;;;17.10;99.90;;;;;;5033839;28;20881;-71
2022/10/18 03:49:22;;;;;;;2.43;2.07;;;17.10;99.90;;;;;;5033741;28;20791;-71
2022/10/18 03:51:50;;;;;;;2.43;1.70;;;17.10;99.90;;;;;;5050418;28;20401;-70
2022/10/18 03:54:41;;;;;;;2.80;2.00;;;17.10;99.90;;;;;;5022247;28;20436;-70
2022/10/18 03:57:09;;;;;;;2.70;2.50;;;17.00;99.90;;;;;;5018164;28;20464;-70
2022/10/18 03:59:37;;;;;;;2.63;2.30;;;17.10;99.90;;;;;;5043300;28;20442;-70
2022/10/18 04:02:06;;;;;;;2.40;2.20;;;17.10;99.90;;;;;;5046700;28;20417;-70
2022/10/18 04:04:32;;;;;;;3.70;2.70;;;17.00;99.90;;;;;;5032818;28;20459;-70
2022/10/18 04:07:03;;;;;;;2.43;2.23;;;17.00;99.90;;;;;;5016979;28;20448;-70
2022/10/18 04:09:29;;;;;;;4.13;3.50;;;17.10;99.90;;;;;;5031616;28;20755;-70
2022/10/18 04:11:55;;;;;;;2.90;2.00;;;17.00;99.90;;;;;;5032714;28;20432;-70
2022/10/18 04:14:26;;;;;;;2.97;2.30;;;17.00;99.90;;;;;;5051449;28;20708;-69
2022/10/18 04:16:52;;;;;;;2.93;2.17;;;17.00;99.90;;;;;;4981162;28;20441;-70
2022/10/18 04:19:18;;;;;;;5.70;2.90;;;17.00;99.90;;;;;;5033517;28;20763;-70
2022/10/18 04:21:44;;;;;;;3.17;2.13;;;17.00;99.90;;;;;;4987238;28;20529;-70
2022/10/18 04:24:11;;;;;;;2.67;2.20;;;17.00;99.90;;;;;;5015682;28;20437;-70
2022/10/18 04:26:43;;;;;;;2.90;2.30;;;17.00;99.90;;;;;;5006631;28;20538;-70
2022/10/18 04:29:40;;;;;;;2.70;2.50;;;17.00;99.90;;;;;;4972124;28;20489;-72
2022/10/18 04:32:08;;;;;;;2.97;2.67;;;17.00;99.90;;;;;;4970616;28;20407;-71
2022/10/18 04:34:34;;;;;;;2.60;2.40;;;17.00;99.90;;;;;;4975198;28;20460;-71
2022/10/18 04:37:03;;;;;;;3.13;2.80;;;17.00;99.90;;;;;;5029935;28;20460;-70
2022/10/18 04:39:29;;;;;;;3.33;3.03;;;17.00;99.90;;;;;;5032595;28;20545;-70
2022/10/18 04:41:55;;;;;;;3.70;2.73;;;17.00;99.90;;;;;;5033745;28;20419;-70
2022/10/18 04:44:22;;;;;;;2.70;2.50;;;17.00;99.90;;;;;;5033558;28;20451;-70
2022/10/18 04:46:48;;;;;;;4.03;2.27;;;17.00;99.90;;;;;;5005588;28;20444;-71
2022/10/18 04:49:14;;;;;;;3.43;3.00;;;17.00;99.90;;;;;;5027022;28;20901;-70
2022/10/18 04:51:42;;;;;;;3.17;2.53;;;17.00;99.90;;;;;;5051539;28;20449;-70
2022/10/18 04:54:08;;;;;;;3.60;3.30;;;17.00;99.90;;;;;;5019953;28;20401;-70
2022/10/18 04:56:40;;;;;;;4.70;4.13;;;17.00;99.90;;;;;;5036589;28;20463;-70
2022/10/18 04:59:06;;;;;;;3.50;3.20;;;17.00;99.90;;;;;;5035758;28;20469;-70
2022/10/18 05:01:32;;;;;;;2.50;2.30;;;17.00;99.90;;;;;;5018435;28;20456;-69
2022/10/18 05:04:24;;;;;;;3.00;2.70;;;17.00;99.90;;;;;;5011237;28;20242;-70
2022/10/18 05:06:50;;;;;;;3.90;3.30;;;17.00;99.90;;;;;;5055180;28;20440;-70
2022/10/18 05:09:21;;;;;;;4.00;3.57;;;17.00;99.90;;;;;;5037064;28;20225;-70
2022/10/18 05:11:52;;;;;;;5.03;3.00;;;17.00;99.90;;;;;;5021325;28;20511;-70
2022/10/18 05:14:18;;;;;;;4.20;2.90;;;17.00;99.90;;;;;;5036842;28;20424;-70
2022/10/18 05:16:47;;;;;;;3.57;2.93;;;17.00;99.90;;;;;;5020819;28;20789;-70
2022/10/18 05:19:13;;;;;;;3.20;2.57;;;17.00;99.90;;;;;;5020640;28;20431;-70
2022/10/18 05:21:44;;;;;;;4.10;2.70;;;17.00;99.90;;;;;;5037030;28;20416;-70
2022/10/18 05:24:11;;;;;;;2.53;2.33;;;17.00;99.90;;;;;;5020665;28;20447;-70
2022/10/18 05:26:39;;;;;;;2.60;2.37;;;17.00;99.90;;;;;;5054637;28;20443;-70
2022/10/18 05:29:07;;;;;;;2.40;2.20;;;17.00;99.90;;;;;;5020337;28;20407;-68
2022/10/18 05:31:33;;;;;;;5.60;3.67;;;17.00;99.90;;;;;;5053036;28;20803;-69
2022/10/18 05:34:00;;;;;;;8.93;3.80;;;17.00;99.90;;;;;;5036311;28;20192;-70
2022/10/18 05:36:30;;;;;;;4.00;3.40;;;17.00;99.90;;;;;;5053543;28;20429;-71
2022/10/18 05:38:59;;;;;;;3.57;3.13;;;17.00;99.90;;;;;;5036682;28;20465;-70
2022/10/18 05:41:25;;;;;;;2.73;2.53;;;17.00;99.90;;;;;;5053324;28;20411;-71
2022/10/18 05:43:51;;;;;;;4.07;3.60;;;17.00;99.90;;;;;;5036476;28;20471;-70
2022/10/18 05:46:19;;;;;;;4.73;4.30;;;17.00;99.90;;;;;;5019951;28;20435;-71
2022/10/18 05:48:49;;;;;;;3.17;2.87;;;17.00;99.90;;;;;;5036627;28;20424;-70
2022/10/18 05:51:20;;;;;;;4.60;3.60;;;17.00;99.90;;;;;;5036651;28;20759;-71
2022/10/18 05:54:17;;;;;;;3.30;2.97;;;17.00;99.90;;;;;;5045674;28;20425;-71
2022/10/18 05:56:43;;;;;;;3.07;2.77;;;17.00;99.90;;;;;;5019958;28;20426;-70
2022/10/18 05:59:10;;;;;;;2.53;2.10;;;17.00;99.90;;;;;;5019748;28;20551;-71
2022/10/18 06:01:42;;;;;;;3.87;2.63;;;17.00;99.90;;;;;;5019830;28;20404;-71
2022/10/18 06:04:11;;;;;;;2.57;2.17;;;17.00;99.90;;;;;;5016425;28;20538;-71
2022/10/18 06:06:38;;;;;;;2.37;2.17;;;17.00;99.90;;;;;;5032783;28;20436;-71
2022/10/18 06:09:06;;;;;;;3.37;2.50;;;16.90;99.90;;;;;;5033902;28;20461;-70
2022/10/18 06:11:35;;;;;;;2.30;2.10;;;16.90;99.90;;;;;;5032674;28;20551;-71
2022/10/18 06:14:10;;;;;;;4.03;2.87;;;16.90;99.90;;;;;;5016337;28;20450;-71
2022/10/18 06:16:43;;;;;;;6.10;4.77;;;17.00;99.90;;;;;;5032634;28;20436;-71
2022/10/18 06:19:12;;;;;;;4.77;4.20;;;16.90;99.90;;;;;;4999728;28;20412;-71
2022/10/18 06:21:38;;;;;;;4.67;3.80;;;17.00;99.90;;;;;;5015919;28;20459;-71
2022/10/18 06:24:04;;;;;;;6.07;3.20;;;16.90;99.90;;;;;;5032508;28;20479;-71
2022/10/18 06:26:32;;;;;;;4.70;3.60;;;17.00;99.90;;;;;;5016012;28;20464;-71
2022/10/18 06:29:17;;;;;;;4.50;3.80;;;17.00;99.90;;;;;;5032659;28;20470;-71
2022/10/18 06:31:45;;;;;;;5.13;4.57;;;17.00;99.90;;;;;;5033903;28;20403;-70
2022/10/18 06:34:14;;;;;;;4.07;3.67;;;17.00;99.90;;;;;;5036432;28;20405;-71
2022/10/18 06:36:45;;;;;;;4.60;3.70;;;17.00;99.90;;;;;;5053996;28;20455;-70
2022/10/18 06:39:11;;;;;;;4.30;3.57;;;16.90;99.90;;;;;;5036410;28;20946;-70
2022/10/18 06:41:37;;;;;;;5.67;3.97;;;17.00;99.90;;;;;;5054133;28;20410;-70
2022/10/18 06:44:22;;;;;;;4.50;3.20;;;16.90;99.90;;;;;;5053959;28;20458;-70
2022/10/18 06:46:55;;;;;;;5.57;2.93;;;16.90;99.90;;;;;;5036223;28;20941;-70
2022/10/18 06:49:23;;;;;;;4.60;4.20;;;16.90;99.90;;;;;;5050898;28;20403;-71
2022/10/18 06:51:49;;;;;;;4.03;3.43;;;16.90;99.90;;;;;;5051747;28;20431;-71
2022/10/18 06:54:15;;;;;;;7.47;3.40;;;16.90;99.90;;;;;;5050521;28;20409;-70
2022/10/18 06:56:44;;;;;;;3.20;2.90;;;16.90;99.90;;;;;;5051847;28;20478;-70
2022/10/18 06:59:19;;;;;;;3.27;2.77;;;16.90;99.90;;;;;;5034702;28;20446;-71
2022/10/18 07:01:47;;;;;;;2.60;2.40;;;16.90;99.90;;;;;;5017528;28;20414;-71
2022/10/18 07:04:15;;;;;;;3.60;2.80;;;16.90;99.90;;;;;;5036375;28;20204;-70
2022/10/18 07:07:04;;;;;;;3.43;3.13;;;16.90;99.90;;;;;;5038610;28;20490;-70
2022/10/18 07:09:32;;;;;;;4.20;3.50;;;16.90;99.90;;;;;;5019443;28;20446;-71
2022/10/18 07:11:58;;;;;;;3.83;2.40;;;16.90;99.90;;;;;;5052341;28;20916;-70
2022/10/18 07:14:26;;;;;;;5.07;4.00;;;16.90;99.90;;;;;;5034312;28;20526;-70
2022/10/18 07:16:52;;;;;;;5.67;4.03;;;16.90;99.90;;;;;;5052084;28;20200;-70
2022/10/18 07:19:18;;;;;;;4.07;3.67;;;16.90;99.90;;;;;;5035092;28;20462;-71
2022/10/18 07:21:44;;;;;;;7.50;5.00;;;16.90;99.90;;;;;;5059312;28;20484;-70
2022/10/18 07:24:13;;;;;;;4.63;4.17;;;16.90;99.90;;;;;;5039256;28;21244;-70
2022/10/18 07:26:42;;;;;;;4.20;3.50;;;16.90;99.90;;;;;;5073050;28;20434;-70
2022/10/18 07:29:11;;;;;;;3.53;2.90;;;16.90;99.90;;;;;;5073126;28;20403;-70
2022/10/18 07:31:37;;;;;;;4.13;3.73;;;16.90;99.90;;;;;;5055293;28;20418;-70
2022/10/18 07:34:08;;;;;;;3.60;3.20;;;16.90;99.90;;;;;;5055267;28;20413;-70
2022/10/18 07:36:34;;;;;;;3.20;2.90;;;16.90;99.90;;;;;;5055216;28;20407;-70
2022/10/18 07:39:01;;;;;;;3.20;2.90;;;16.90;99.90;;;;;;5055213;28;20403;-70
2022/10/18 07:41:33;;;;;;;3.10;2.87;;;16.90;99.90;;;;;;5038984;28;20418;-70
2022/10/18 07:44:05;;;;;;;4.30;3.00;;;16.90;99.90;;;;;;5035433;28;20471;-70
2022/10/18 07:46:33;;;;;;;3.20;2.90;;;16.90;99.90;;;;;;5052814;28;20407;-70
2022/10/18 07:49:02;;;;;;;4.30;3.07;;;17.00;99.90;;;;;;5052911;28;20995;-70
2022/10/18 07:51:31;;;;;;;3.33;3.03;;;16.90;99.90;;;;;;5035078;28;20411;-70
2022/10/18 07:54:00;;;;;;;4.33;3.10;;;17.00;99.90;;;;;;5035175;28;20427;-70
2022/10/18 07:56:29;;;;;;;3.70;3.20;;;17.00;99.90;;;;;;5052743;28;20424;-71
2022/10/18 07:58:58;;;;;;;4.00;2.80;;;16.90;99.90;;;;;;5052696;28;20473;-70
2022/10/18 08:01:27;;;;;;;7.60;3.53;;;17.00;99.90;;;;;;5034969;28;20873;-70
2022/10/18 08:03:59;;;;;;;3.10;2.80;;;17.00;99.90;;;;;;5035328;28;20549;-71
2022/10/18 08:06:25;;;;;;;3.80;3.40;;;16.90;99.90;;;;;;5018341;28;20436;-70
2022/10/18 08:08:51;;;;;;;3.50;3.20;;;16.90;99.90;;;;;;5024205;28;20418;-70
2022/10/18 08:11:22;;;;;;;4.40;3.40;;;16.90;99.90;;;;;;5054835;28;20398;-70
2022/10/18 08:13:52;;;;;;;4.50;3.37;;;17.00;99.90;;;;;;5038388;28;20466;-70
2022/10/18 08:16:23;;;;;;;4.10;3.33;;;17.00;99.90;;;;;;5072763;28;20442;-70
2022/10/18 08:18:50;;;;;;;5.90;3.37;;;17.00;99.90;;;;;;5054792;28;20398;-70
2022/10/18 08:21:21;;;;;;;4.00;3.57;;;17.00;99.90;;;;;;5038401;28;20407;-70
2022/10/18 08:23:48;;;;;;;5.87;3.10;;;17.00;99.90;;;;;;5072544;28;20974;-70
2022/10/18 08:26:19;;;;;;;4.20;3.03;;;17.00;99.90;;;;;;5058607;28;20464;-70
2022/10/18 08:28:46;;;;;;;5.23;4.17;;;17.00;99.90;;;;;;5020822;28;20410;-70
2022/10/18 08:31:19;;;;;;;4.30;3.63;;;17.00;99.90;;;;;;5038734;28;20403;-70
2022/10/18 08:33:49;;;;;;;5.00;3.83;;;17.00;99.90;;;;;;5038500;28;20817;-71
2022/10/18 08:36:20;;;;;;;7.77;4.83;;;17.00;99.90;;;;;;5056598;28;20442;-70
2022/10/18 08:38:48;;;;;;;6.10;4.50;;;17.00;99.90;;;;;;5056370;28;20427;-70
2022/10/18 08:41:37;;;;;;;4.57;4.00;;;17.00;99.90;;;;;;5038417;28;20427;-70
2022/10/18 08:44:11;;;;;;;5.60;3.50;;;17.00;99.90;;;;;;5005624;28;20459;-70
2022/10/18 08:46:41;;;;;;;4.50;3.93;;;17.00;99.90;;;;;;5038583;28;20408;-71
2022/10/18 08:49:25;;;;;;;4.87;4.37;;;17.00;99.90;;;;;;5056127;28;20400;-70
2022/10/18 08:51:52;;;;;;;6.27;4.70;;;17.00;99.90;;;;;;5038280;28;20880;-70
2022/10/18 08:54:43;;;;;;;6.40;4.07;;;17.00;99.90;;;;;;5038464;28;20984;-70
2022/10/18 08:57:14;;;;;;;5.00;3.80;;;17.00;99.90;;;;;;5021861;28;20542;-71
2022/10/18 08:59:43;;;;;;;6.73;5.30;;;17.00;99.90;;;;;;5055893;28;20490;-70
2022/10/18 09:02:34;;;;;;;6.53;4.70;;;17.00;99.90;;;;;;5021692;28;20481;-70
2022/10/18 09:05:26;;;;;;;8.73;5.23;;;17.00;99.90;;;;;;5005391;28;20943;-70
2022/10/18 09:08:19;;;;;;;7.13;5.50;;;17.00;99.90;;;;;;5021540;28;20514;-70
2022/10/18 09:10:51;;;;;;;7.33;5.50;;;17.00;99.90;;;;;;5005235;28;20964;-70
2022/10/18 09:13:47;;;;;;;9.87;6.70;;;17.00;99.90;;;;;;5023846;28;20425;-70
2022/10/18 09:16:21;;;;;;;9.23;6.57;;;17.00;99.90;;;;;;5021490;28;20458;-71
2022/10/18 09:18:57;;;;;;;9.10;6.73;;;17.00;99.90;;;;;;5037858;28;20410;-70
2022/10/18 09:21:47;;;;;;;9.27;6.63;;;17.00;99.90;;;;;;5054304;28;20404;-70
2022/10/18 09:24:28;;;;;;;10.90;7.90;;;17.10;99.90;;;;;;5054823;28;20459;-70
2022/10/18 09:27:03;;;;;;;12.03;8.93;;;17.10;99.90;;;;;;5053996;28;20437;-71
2022/10/18 09:29:38;;;;;;;11.30;9.20;;;17.10;99.90;;;;;;5004124;28;20430;-70
2022/10/18 09:32:23;;;;;;;13.83;10.23;;;17.00;99.90;;;;;;5036974;28;20415;-70
2022/10/18 09:34:58;;;;;;;16.80;10.90;;;17.10;99.90;;;;;;5020245;28;20489;-70
2022/10/18 09:37:29;;;;;;;17.17;11.70;;;17.10;99.90;;;;;;5020184;28;21065;-70
2022/10/18 09:40:05;;;;;;;16.90;11.33;;;17.10;99.90;;;;;;5036061;28;20434;-70
2022/10/18 09:42:50;;;;;;;17.23;12.10;;;17.10;99.90;;;;;;5037364;28;20405;-70
2022/10/18 09:45:41;;;;;;;23.03;13.90;;;17.10;99.90;;;;;;5053871;28;20920;-70
2022/10/18 09:48:16;;;;;;;22.67;14.63;;;17.10;99.90;;;;;;5037077;28;20436;-70
2022/10/18 09:50:55;;;;;;;28.07;16.77;;;17.10;99.90;;;;;;5054904;28;20420;-70
2022/10/18 09:53:44;;;;;;;24.90;16.43;;;17.10;99.90;;;;;;5054944;28;20411;-70
2022/10/18 09:56:56;;;;;;;27.27;18.00;;;17.10;99.90;;;;;;4993301;28;20517;-70
2022/10/18 09:59:48;;;;;;;31.03;17.80;;;17.10;99.90;;;;;;5020933;28;20416;-70
2022/10/18 10:02:21;;;;;;;25.60;17.00;;;17.10;99.90;;;;;;5020750;28;20404;-70
2022/10/18 10:04:55;;;;;;;35.60;22.37;;;17.10;99.90;;;;;;5036630;28;20493;-70
2022/10/18 10:07:42;;;;;;;33.10;20.60;;;17.10;99.90;;;;;;5038406;28;20433;-70
2022/10/18 10:10:20;;;;;;;37.43;21.90;;;17.10;99.90;;;;;;5036808;28;20481;-70
2022/10/18 10:13:00;;;;;;;34.83;21.33;;;17.10;99.90;;;;;;5036731;28;20394;-70
2022/10/18 10:15:30;;;;;;;35.27;21.93;;;17.10;99.90;;;;;;5020300;28;20833;-70
2022/10/18 10:18:27;;;;;;;38.10;22.60;;;17.20;99.90;;;;;;5038509;28;20452;-71
2022/10/18 10:20:59;;;;;;;43.30;25.83;;;17.20;99.90;;;;;;5054459;28;20442;-71
2022/10/18 10:23:44;;;;;;;36.70;22.27;;;17.20;99.90;;;;;;5004129;28;20573;-70
2022/10/18 10:26:37;;;;;;;36.33;22.03;;;17.20;99.90;;;;;;5053426;28;20404;-72
2022/10/18 10:29:46;;;;;;;37.73;24.07;;;17.20;99.90;;;;;;5020223;28;20455;-73
2022/10/18 10:32:15;;;;;;;43.63;23.40;;;17.20;99.90;;;;;;5036720;28;20502;-70
2022/10/18 10:34:43;;;;;;;40.33;23.87;;;17.20;99.90;;;;;;5020330;28;20499;-70
2022/10/18 10:37:29;;;;;;;44.67;26.23;;;17.20;99.90;;;;;;5053769;28;20451;-70
2022/10/18 10:40:09;;;;;;;38.83;24.37;;;17.20;99.90;;;;;;5020497;28;20507;-70
2022/10/18 10:42:56;;;;;;;44.40;26.67;;;17.20;99.90;;;;;;5036288;28;20500;-70
2022/10/18 10:45:24;;;;;;;42.37;25.70;;;17.30;99.90;;;;;;5019907;28;20907;-69
2022/10/18 10:47:53;;;;;;;42.80;26.23;;;17.30;99.90;;;;;;5019736;28;20435;-69
2022/10/18 10:50:25;;;;;;;48.10;28.47;;;17.30;99.90;;;;;;5019363;28;20443;-70
2022/10/18 10:52:55;;;;;;;42.57;26.20;;;17.30;99.90;;;;;;5020620;28;20503;-70
2022/10/18 10:55:32;;;;;;;44.43;25.50;;;17.30;99.90;;;;;;5053767;28;20930;-70
2022/10/18 10:57:58;;;;;;;43.77;26.17;;;17.30;99.90;;;;;;5019551;28;20468;-70
2022/10/18 11:00:41;;;;;;;41.50;24.17;;;17.30;99.90;;;;;;5036059;28;20432;-70
2022/10/18 11:03:11;;;;;;;38.50;25.93;;;17.30;99.90;;;;;;5033693;28;20446;-72
2022/10/18 11:05:46;;;;;;;43.43;26.93;;;17.30;99.90;;;;;;5016423;28;20410;-72
2022/10/18 11:08:18;;;;;;;46.20;26.50;;;17.30;99.90;;;;;;5016512;28;20432;-72
2022/10/18 11:11:07;;;;;;;37.40;23.27;;;17.30;99.90;;;;;;5000112;28;20427;-72
2022/10/18 11:13:56;;;;;;;40.60;25.70;;;17.30;99.90;;;;;;4999679;28;20449;-71
2022/10/18 11:17:03;;;;;;;35.30;22.17;;;17.30;99.90;;;;;;5033595;28;20440;-72
2022/10/18 11:19:46;;;;;;;37.60;23.80;;;17.30;99.90;;;;;;4975565;28;20466;-72
2022/10/18 11:22:17;;;;;;;38.90;24.43;;;17.30;99.90;;;;;;5014838;28;20429;-72
2022/10/18 11:24:46;;;;;;;35.80;24.30;;;17.30;99.90;;;;;;5032795;28;20469;-72
2022/10/18 11:27:28;;;;;;;38.57;24.30;;;17.40;99.90;;;;;;4999054;28;20458;-72
2022/10/18 11:30:18;;;;;;;36.00;23.97;;;17.30;99.90;;;;;;5046666;28;20536;-72
2022/10/18 11:33:03;;;;;;;40.87;25.23;;;17.40;99.90;;;;;;5018850;28;20486;-72
2022/10/18 11:35:40;;;;;;;39.23;23.67;;;17.40;99.90;;;;;;5052784;28;20437;-72
2022/10/18 11:38:30;;;;;;;37.70;23.53;;;17.40;99.90;;;;;;5034829;28;20471;-71
2022/10/18 11:41:29;;;;;;;33.23;23.00;;;17.40;99.90;;;;;;5052443;28;20907;-72
2022/10/18 11:44:14;;;;;;;35.43;24.90;;;17.40;99.90;;;;;;5034836;28;20460;-72
2022/10/18 11:47:18;;;;;;;34.17;24.63;;;17.50;99.90;;;;;;5051348;28;20435;-71
2022/10/18 11:50:26;;;;;;;42.00;23.93;;;17.40;99.90;;;;;;5002133;28;20427;-72
2022/10/18 11:53:31;;;;;;;33.70;23.10;;;17.50;99.90;;;;;;5034878;28;20487;-71
2022/10/18 11:56:15;;;;;;;36.60;23.93;;;17.50;99.90;;;;;;5032356;28;20420;-71
2022/10/18 11:58:41;;;;;;;33.57;22.87;;;17.50;99.90;;;;;;5053302;28;20432;-72
2022/10/18 12:01:31;;;;;;;33.47;22.80;;;17.50;99.90;;;;;;5036515;28;20407;-74
2022/10/18 12:04:20;;;;;;;33.80;23.00;;;17.50;99.90;;;;;;5037926;28;20875;-72
2022/10/18 12:06:50;;;;;;;34.50;22.23;;;17.50;99.90;;;;;;5055007;28;20451;-72
2022/10/18 12:09:38;;;;;;;33.10;21.87;;;17.50;99.90;;;;;;5037677;28;20396;-72
2022/10/18 12:12:23;;;;;;;28.50;20.00;;;17.60;99.90;;;;;;5055885;28;20697;-72
2022/10/18 12:15:00;;;;;;;28.73;19.33;;;17.60;99.90;;;;;;5056607;28;20433;-72
2022/10/18 12:17:40;;;;;;;30.07;19.03;;;17.60;99.90;;;;;;5038769;28;20529;-72
2022/10/18 12:20:19;;;;;;;27.10;18.63;;;17.60;99.90;;;;;;5056847;28;20399;-72
2022/10/18 12:23:03;;;;;;;24.23;16.77;;;17.60;99.90;;;;;;5041555;28;20443;-72
2022/10/18 12:25:45;;;;;;;24.07;17.47;;;17.60;99.90;;;;;;5056667;28;20424;-72
2022/10/18 12:28:31;;;;;;;28.73;19.13;;;17.60;99.90;;;;;;5022380;28;20811;-72
2022/10/18 12:31:19;;;;;;;26.93;18.07;;;17.70;99.90;;;;;;5057419;28;20448;-73
2022/10/18 12:33:49;;;;;;;26.63;16.77;;;17.60;99.90;;;;;;5041262;28;20412;-72
2022/10/18 12:36:35;;;;;;;28.20;18.90;;;17.70;99.90;;;;;;5059147;28;20410;-72
2022/10/18 12:39:10;;;;;;;29.90;18.10;;;17.70;99.90;;;;;;5042135;28;20408;-72
2022/10/18 12:41:38;;;;;;;27.20;17.40;;;17.70;99.90;;;;;;5042084;28;20449;-72
2022/10/18 12:44:17;;;;;;;25.20;16.43;;;17.70;99.90;;;;;;5058527;28;20531;-72
2022/10/18 12:46:56;;;;;;;23.23;17.43;;;17.70;99.90;;;;;;5058525;28;20808;-72
2022/10/18 12:49:34;;;;;;;22.40;15.40;;;17.70;99.90;;;;;;5058545;28;20411;-72
2022/10/18 12:52:02;;;;;;;19.90;14.00;;;17.70;99.90;;;;;;5058524;28;20423;-72
2022/10/18 12:54:34;;;;;;;22.90;15.30;;;17.70;99.90;;;;;;5058385;28;20421;-72
2022/10/18 12:57:16;;;;;;;20.90;15.53;;;17.80;99.90;;;;;;5056360;28;20835;-72
2022/10/18 12:59:47;;;;;;;22.43;14.10;;;17.70;99.90;;;;;;5042313;28;20443;-72
2022/10/18 13:02:25;;;;;;;18.13;12.87;;;17.70;99.90;;;;;;5055326;28;20806;-72
2022/10/18 13:04:55;;;;;;;18.83;13.33;;;17.80;99.90;;;;;;5022139;28;20441;-72
2022/10/18 13:07:30;;;;;;;20.23;12.53;;;17.80;99.90;;;;;;5075119;23;20509;-73
2022/10/18 13:10:08;;;;;;;17.23;11.17;;;17.80;99.90;;;;;;5036859;28;20926;-73
2022/10/18 13:12:37;;;;;;;18.00;11.53;;;17.80;99.90;;;;;;5036125;28;20433;-73
2022/10/18 13:15:32;;;;;;;22.40;12.57;;;17.80;99.90;;;;;;5054389;28;20393;-73
2022/10/18 13:18:09;;;;;;;18.13;11.67;;;17.80;99.90;;;;;;5036678;28;20468;-73